sensor_id;sensor_type;location;lat;lon;timestamp;P1;durP1;ratioP1;P2;durP2;ratioP2
41572;SDS011;27286;47.870;19.006;2022-12-08T00:01:31;18.50;;;13.40;;
41572;SDS011;27286;47.870;19.006;2022-12-08T00:03:58;18.05;;;12.55;;
41572;SDS011;27286;47.870;19.006;2022-12-08T00:11:47;19.90;;;13.38;;
41572;SDS011;27286;47.870;19.006;2022-12-08T00:14:17;17.35;;;12.07;;
41572;SDS011;27286;47.870;19.006;2022-12-08T00:16:42;18.65;;;12.30;;
41572;SDS011;27286;47.870;19.006;2022-12-08T00:19:08;21.60;;;12.63;;
41572;SDS011;27286;47.870;19.006;2022-12-08T00:21:33;18.73;;;11.98;;
41572;SDS011;27286;47.870;19.006;2022-12-08T00:23:58;19.17;;;11.90;;
41572;SDS011;27286;47.870;19.006;2022-12-08T00:26:24;20.70;;;13.05;;
41572;SDS011;27286;47.870;19.006;2022-12-08T00:28:49;21.60;;;13.50;;
41572;SDS011;27286;47.870;19.006;2022-12-08T00:31:15;25.75;;;15.77;;
41572;SDS011;27286;47.870;19.006;2022-12-08T00:33:40;32.40;;;20.30;;
41572;SDS011;27286;47.870;19.006;2022-12-08T00:36:12;33.55;;;22.42;;
41572;SDS011;27286;47.870;19.006;2022-12-08T00:38:39;36.88;;;21.33;;
41572;SDS011;27286;47.870;19.006;2022-12-08T00:41:06;38.85;;;24.20;;
41572;SDS011;27286;47.870;19.006;2022-12-08T00:43:35;28.95;;;21.55;;
41572;SDS011;27286;47.870;19.006;2022-12-08T00:46:01;30.50;;;19.92;;
41572;SDS011;27286;47.870;19.006;2022-12-08T00:48:27;25.52;;;15.05;;
41572;SDS011;27286;47.870;19.006;2022-12-08T00:50:52;26.55;;;17.25;;
41572;SDS011;27286;47.870;19.006;2022-12-08T00:53:17;29.42;;;18.13;;
41572;SDS011;27286;47.870;19.006;2022-12-08T00:55:43;28.13;;;17.42;;
41572;SDS011;27286;47.870;19.006;2022-12-08T00:58:08;27.92;;;16.90;;
41572;SDS011;27286;47.870;19.006;2022-12-08T01:00:34;30.38;;;16.90;;
41572;SDS011;27286;47.870;19.006;2022-12-08T01:02:59;25.35;;;15.88;;
41572;SDS011;27286;47.870;19.006;2022-12-08T01:05:24;23.10;;;14.70;;
41572;SDS011;27286;47.870;19.006;2022-12-08T01:07:50;21.38;;;14.50;;
41572;SDS011;27286;47.870;19.006;2022-12-08T01:10:15;21.20;;;13.70;;
41572;SDS011;27286;47.870;19.006;2022-12-08T01:12:41;23.25;;;14.45;;
41572;SDS011;27286;47.870;19.006;2022-12-08T01:15:06;22.60;;;12.48;;
41572;SDS011;27286;47.870;19.006;2022-12-08T01:17:32;21.20;;;13.27;;
41572;SDS011;27286;47.870;19.006;2022-12-08T01:19:58;24.00;;;13.43;;
41572;SDS011;27286;47.870;19.006;2022-12-08T01:22:23;19.73;;;14.30;;
41572;SDS011;27286;47.870;19.006;2022-12-08T01:24:49;22.80;;;15.10;;
41572;SDS011;27286;47.870;19.006;2022-12-08T01:27:15;23.83;;;14.57;;
41572;SDS011;27286;47.870;19.006;2022-12-08T01:29:40;22.52;;;14.20;;
41572;SDS011;27286;47.870;19.006;2022-12-08T01:32:06;23.63;;;15.32;;
41572;SDS011;27286;47.870;19.006;2022-12-08T01:34:32;24.83;;;14.88;;
41572;SDS011;27286;47.870;19.006;2022-12-08T01:36:58;22.42;;;15.18;;
41572;SDS011;27286;47.870;19.006;2022-12-08T01:39:24;27.20;;;15.88;;
41572;SDS011;27286;47.870;19.006;2022-12-08T01:41:50;27.17;;;16.67;;
41572;SDS011;27286;47.870;19.006;2022-12-08T01:46:44;27.38;;;16.00;;
41572;SDS011;27286;47.870;19.006;2022-12-08T01:54:16;33.83;;;18.15;;
41572;SDS011;27286;47.870;19.006;2022-12-08T01:59:16;32.60;;;20.33;;
41572;SDS011;27286;47.870;19.006;2022-12-08T02:01:43;39.58;;;21.70;;
41572;SDS011;27286;47.870;19.006;2022-12-08T02:04:08;35.75;;;22.38;;
41572;SDS011;27286;47.870;19.006;2022-12-08T02:06:35;32.80;;;21.92;;
41572;SDS011;27286;47.870;19.006;2022-12-08T02:09:05;34.42;;;20.63;;
41572;SDS011;27286;47.870;19.006;2022-12-08T02:11:30;30.80;;;19.48;;
41572;SDS011;27286;47.870;19.006;2022-12-08T02:13:56;35.22;;;21.30;;
41572;SDS011;27286;47.870;19.006;2022-12-08T02:21:56;34.08;;;21.10;;
41572;SDS011;27286;47.870;19.006;2022-12-08T02:24:52;33.60;;;20.33;;
41572;SDS011;27286;47.870;19.006;2022-12-08T02:41:24;29.70;;;19.67;;
41572;SDS011;27286;47.870;19.006;2022-12-08T02:44:11;32.63;;;19.52;;
41572;SDS011;27286;47.870;19.006;2022-12-08T02:46:57;31.15;;;19.80;;
41572;SDS011;27286;47.870;19.006;2022-12-08T02:49:33;34.50;;;20.02;;
41572;SDS011;27286;47.870;19.006;2022-12-08T02:52:42;30.05;;;19.10;;
41572;SDS011;27286;47.870;19.006;2022-12-08T02:55:01;26.38;;;16.30;;
41572;SDS011;27286;47.870;19.006;2022-12-08T03:08:02;25.17;;;14.60;;
41572;SDS011;27286;47.870;19.006;2022-12-08T03:11:00;23.67;;;15.85;;
41572;SDS011;27286;47.870;19.006;2022-12-08T03:13:37;25.23;;;14.23;;
41572;SDS011;27286;47.870;19.006;2022-12-08T03:16:08;25.60;;;15.75;;
41572;SDS011;27286;47.870;19.006;2022-12-08T03:18:37;22.45;;;15.65;;
41572;SDS011;27286;47.870;19.006;2022-12-08T03:21:06;24.77;;;15.18;;
41572;SDS011;27286;47.870;19.006;2022-12-08T03:23:35;27.23;;;16.40;;
41572;SDS011;27286;47.870;19.006;2022-12-08T03:26:12;24.58;;;16.48;;
41572;SDS011;27286;47.870;19.006;2022-12-08T03:28:43;24.73;;;16.13;;
41572;SDS011;27286;47.870;19.006;2022-12-08T03:31:09;21.38;;;14.43;;
41572;SDS011;27286;47.870;19.006;2022-12-08T03:33:37;23.23;;;14.73;;
41572;SDS011;27286;47.870;19.006;2022-12-08T03:36:05;23.33;;;16.10;;
41572;SDS011;27286;47.870;19.006;2022-12-08T03:38:40;24.48;;;16.77;;
41572;SDS011;27286;47.870;19.006;2022-12-08T03:41:07;30.90;;;17.65;;
41572;SDS011;27286;47.870;19.006;2022-12-08T03:43:45;28.67;;;17.45;;
41572;SDS011;27286;47.870;19.006;2022-12-08T03:46:11;24.95;;;16.77;;
41572;SDS011;27286;47.870;19.006;2022-12-08T03:48:37;24.45;;;14.68;;
41572;SDS011;27286;47.870;19.006;2022-12-08T03:51:02;24.15;;;15.05;;
41572;SDS011;27286;47.870;19.006;2022-12-08T03:53:28;26.05;;;15.75;;
41572;SDS011;27286;47.870;19.006;2022-12-08T03:55:53;23.05;;;14.35;;
41572;SDS011;27286;47.870;19.006;2022-12-08T03:58:18;18.48;;;13.30;;
41572;SDS011;27286;47.870;19.006;2022-12-08T04:00:44;19.40;;;13.23;;
41572;SDS011;27286;47.870;19.006;2022-12-08T04:03:09;18.80;;;11.73;;
41572;SDS011;27286;47.870;19.006;2022-12-08T04:05:35;19.35;;;13.00;;
41572;SDS011;27286;47.870;19.006;2022-12-08T04:08:00;22.60;;;13.27;;
41572;SDS011;27286;47.870;19.006;2022-12-08T04:10:25;20.83;;;14.05;;
41572;SDS011;27286;47.870;19.006;2022-12-08T04:12:51;22.52;;;14.48;;
41572;SDS011;27286;47.870;19.006;2022-12-08T04:15:17;22.30;;;15.27;;
41572;SDS011;27286;47.870;19.006;2022-12-08T04:17:42;24.40;;;15.40;;
41572;SDS011;27286;47.870;19.006;2022-12-08T04:20:08;25.40;;;16.38;;
41572;SDS011;27286;47.870;19.006;2022-12-08T04:22:33;25.85;;;15.98;;
41572;SDS011;27286;47.870;19.006;2022-12-08T04:24:59;30.40;;;18.48;;
41572;SDS011;27286;47.870;19.006;2022-12-08T04:27:24;23.63;;;15.25;;
41572;SDS011;27286;47.870;19.006;2022-12-08T04:29:49;24.38;;;16.92;;
41572;SDS011;27286;47.870;19.006;2022-12-08T04:32:15;27.40;;;18.25;;
41572;SDS011;27286;47.870;19.006;2022-12-08T04:34:40;27.27;;;18.42;;
41572;SDS011;27286;47.870;19.006;2022-12-08T04:37:06;26.27;;;16.50;;
41572;SDS011;27286;47.870;19.006;2022-12-08T04:39:31;28.50;;;17.33;;
41572;SDS011;27286;47.870;19.006;2022-12-08T04:41:57;31.23;;;19.33;;
41572;SDS011;27286;47.870;19.006;2022-12-08T04:44:22;39.40;;;23.25;;
41572;SDS011;27286;47.870;19.006;2022-12-08T04:46:47;35.63;;;23.13;;
41572;SDS011;27286;47.870;19.006;2022-12-08T04:49:13;32.42;;;20.90;;
41572;SDS011;27286;47.870;19.006;2022-12-08T04:51:38;32.25;;;21.42;;
41572;SDS011;27286;47.870;19.006;2022-12-08T04:54:04;34.53;;;21.20;;
41572;SDS011;27286;47.870;19.006;2022-12-08T04:56:29;33.28;;;21.85;;
41572;SDS011;27286;47.870;19.006;2022-12-08T04:58:55;37.60;;;23.85;;
41572;SDS011;27286;47.870;19.006;2022-12-08T05:01:20;32.85;;;22.08;;
41572;SDS011;27286;47.870;19.006;2022-12-08T05:03:45;31.00;;;22.15;;
41572;SDS011;27286;47.870;19.006;2022-12-08T05:06:12;32.15;;;20.70;;
41572;SDS011;27286;47.870;19.006;2022-12-08T05:08:38;37.05;;;23.73;;
41572;SDS011;27286;47.870;19.006;2022-12-08T05:11:04;35.22;;;22.58;;
41572;SDS011;27286;47.870;19.006;2022-12-08T05:13:31;33.47;;;21.70;;
41572;SDS011;27286;47.870;19.006;2022-12-08T05:16:06;32.78;;;22.10;;
41572;SDS011;27286;47.870;19.006;2022-12-08T05:18:34;32.50;;;21.33;;
41572;SDS011;27286;47.870;19.006;2022-12-08T05:21:00;28.17;;;19.15;;
41572;SDS011;27286;47.870;19.006;2022-12-08T05:23:26;28.52;;;19.90;;
41572;SDS011;27286;47.870;19.006;2022-12-08T05:25:51;30.38;;;20.20;;
41572;SDS011;27286;47.870;19.006;2022-12-08T05:28:17;31.48;;;21.23;;
41572;SDS011;27286;47.870;19.006;2022-12-08T05:30:42;29.52;;;19.38;;
41572;SDS011;27286;47.870;19.006;2022-12-08T05:33:07;28.05;;;19.65;;
41572;SDS011;27286;47.870;19.006;2022-12-08T05:35:33;27.80;;;17.92;;
41572;SDS011;27286;47.870;19.006;2022-12-08T05:37:58;26.40;;;15.95;;
41572;SDS011;27286;47.870;19.006;2022-12-08T05:40:24;23.45;;;15.95;;
41572;SDS011;27286;47.870;19.006;2022-12-08T05:42:49;25.25;;;17.55;;
41572;SDS011;27286;47.870;19.006;2022-12-08T05:45:15;28.48;;;20.13;;
41572;SDS011;27286;47.870;19.006;2022-12-08T05:47:40;27.85;;;18.05;;
41572;SDS011;27286;47.870;19.006;2022-12-08T05:50:06;31.95;;;20.73;;
41572;SDS011;27286;47.870;19.006;2022-12-08T05:52:32;31.23;;;21.35;;
41572;SDS011;27286;47.870;19.006;2022-12-08T05:54:57;50.47;;;33.15;;
41572;SDS011;27286;47.870;19.006;2022-12-08T05:57:22;45.92;;;29.50;;
41572;SDS011;27286;47.870;19.006;2022-12-08T05:59:48;47.83;;;30.17;;
41572;SDS011;27286;47.870;19.006;2022-12-08T06:02:13;42.50;;;28.15;;
41572;SDS011;27286;47.870;19.006;2022-12-08T06:04:39;35.00;;;22.02;;
41572;SDS011;27286;47.870;19.006;2022-12-08T06:07:04;29.17;;;20.10;;
41572;SDS011;27286;47.870;19.006;2022-12-08T06:09:30;27.00;;;19.17;;
41572;SDS011;27286;47.870;19.006;2022-12-08T06:11:55;25.50;;;16.00;;
41572;SDS011;27286;47.870;19.006;2022-12-08T06:14:21;23.42;;;17.02;;
41572;SDS011;27286;47.870;19.006;2022-12-08T06:16:46;20.75;;;14.95;;
41572;SDS011;27286;47.870;19.006;2022-12-08T06:19:12;25.45;;;15.63;;
41572;SDS011;27286;47.870;19.006;2022-12-08T06:21:37;24.33;;;15.73;;
41572;SDS011;27286;47.870;19.006;2022-12-08T06:24:03;22.35;;;15.23;;
41572;SDS011;27286;47.870;19.006;2022-12-08T06:26:28;27.50;;;18.45;;
41572;SDS011;27286;47.870;19.006;2022-12-08T06:28:54;42.25;;;29.40;;
41572;SDS011;27286;47.870;19.006;2022-12-08T06:31:21;115.32;;;72.95;;
41572;SDS011;27286;47.870;19.006;2022-12-08T06:33:48;73.65;;;51.33;;
41572;SDS011;27286;47.870;19.006;2022-12-08T06:36:15;56.80;;;37.30;;
41572;SDS011;27286;47.870;19.006;2022-12-08T06:38:42;62.60;;;42.00;;
41572;SDS011;27286;47.870;19.006;2022-12-08T06:41:07;63.67;;;41.55;;
41572;SDS011;27286;47.870;19.006;2022-12-08T06:43:33;108.07;;;55.15;;
41572;SDS011;27286;47.870;19.006;2022-12-08T06:45:59;128.50;;;63.42;;
41572;SDS011;27286;47.870;19.006;2022-12-08T06:48:25;110.47;;;56.90;;
41572;SDS011;27286;47.870;19.006;2022-12-08T06:50:51;100.63;;;50.88;;
41572;SDS011;27286;47.870;19.006;2022-12-08T06:53:16;115.40;;;56.65;;
41572;SDS011;27286;47.870;19.006;2022-12-08T06:55:46;105.70;;;56.17;;
41572;SDS011;27286;47.870;19.006;2022-12-08T06:58:15;98.60;;;51.83;;
41572;SDS011;27286;47.870;19.006;2022-12-08T07:00:41;71.90;;;39.92;;
41572;SDS011;27286;47.870;19.006;2022-12-08T07:03:07;52.83;;;29.75;;
41572;SDS011;27286;47.870;19.006;2022-12-08T07:05:35;38.38;;;24.35;;
41572;SDS011;27286;47.870;19.006;2022-12-08T07:08:01;32.45;;;20.60;;
41572;SDS011;27286;47.870;19.006;2022-12-08T07:10:26;32.15;;;21.50;;
41572;SDS011;27286;47.870;19.006;2022-12-08T07:12:52;31.02;;;18.73;;
41572;SDS011;27286;47.870;19.006;2022-12-08T07:15:19;28.00;;;18.98;;
41572;SDS011;27286;47.870;19.006;2022-12-08T07:17:45;28.48;;;19.25;;
41572;SDS011;27286;47.870;19.006;2022-12-08T07:20:12;32.47;;;21.95;;
41572;SDS011;27286;47.870;19.006;2022-12-08T07:22:37;32.92;;;20.95;;
41572;SDS011;27286;47.870;19.006;2022-12-08T07:25:03;32.40;;;20.85;;
41572;SDS011;27286;47.870;19.006;2022-12-08T07:27:29;38.83;;;26.77;;
41572;SDS011;27286;47.870;19.006;2022-12-08T07:29:55;38.95;;;25.45;;
41572;SDS011;27286;47.870;19.006;2022-12-08T07:32:20;59.30;;;35.30;;
41572;SDS011;27286;47.870;19.006;2022-12-08T07:34:46;62.05;;;40.38;;
41572;SDS011;27286;47.870;19.006;2022-12-08T07:37:11;79.88;;;46.78;;
41572;SDS011;27286;47.870;19.006;2022-12-08T07:39:36;99.72;;;58.42;;
41572;SDS011;27286;47.870;19.006;2022-12-08T07:42:02;98.38;;;58.30;;
41572;SDS011;27286;47.870;19.006;2022-12-08T07:44:27;78.88;;;48.92;;
41572;SDS011;27286;47.870;19.006;2022-12-08T07:46:53;76.57;;;50.40;;
41572;SDS011;27286;47.870;19.006;2022-12-08T07:49:18;81.18;;;48.97;;
41572;SDS011;27286;47.870;19.006;2022-12-08T07:51:43;77.93;;;51.30;;
41572;SDS011;27286;47.870;19.006;2022-12-08T07:54:10;97.78;;;55.47;;
41572;SDS011;27286;47.870;19.006;2022-12-08T07:56:36;98.95;;;59.78;;
41572;SDS011;27286;47.870;19.006;2022-12-08T07:59:02;91.43;;;56.63;;
41572;SDS011;27286;47.870;19.006;2022-12-08T08:01:28;81.28;;;48.60;;
41572;SDS011;27286;47.870;19.006;2022-12-08T08:03:56;78.78;;;48.47;;
41572;SDS011;27286;47.870;19.006;2022-12-08T08:06:25;91.00;;;52.95;;
41572;SDS011;27286;47.870;19.006;2022-12-08T08:08:50;93.68;;;55.85;;
41572;SDS011;27286;47.870;19.006;2022-12-08T08:11:16;84.07;;;49.67;;
41572;SDS011;27286;47.870;19.006;2022-12-08T08:13:41;87.43;;;48.90;;
41572;SDS011;27286;47.870;19.006;2022-12-08T08:16:07;89.20;;;53.15;;
41572;SDS011;27286;47.870;19.006;2022-12-08T08:18:34;72.70;;;44.78;;
41572;SDS011;27286;47.870;19.006;2022-12-08T08:21:00;77.20;;;46.30;;
41572;SDS011;27286;47.870;19.006;2022-12-08T08:23:26;88.57;;;51.72;;
41572;SDS011;27286;47.870;19.006;2022-12-08T08:25:52;65.78;;;42.47;;
41572;SDS011;27286;47.870;19.006;2022-12-08T08:28:17;75.78;;;43.50;;
41572;SDS011;27286;47.870;19.006;2022-12-08T08:30:44;65.50;;;38.55;;
41572;SDS011;27286;47.870;19.006;2022-12-08T08:33:11;57.22;;;34.60;;
41572;SDS011;27286;47.870;19.006;2022-12-08T08:35:36;53.35;;;33.22;;
41572;SDS011;27286;47.870;19.006;2022-12-08T08:38:02;55.83;;;35.05;;
41572;SDS011;27286;47.870;19.006;2022-12-08T08:40:27;48.70;;;33.08;;
41572;SDS011;27286;47.870;19.006;2022-12-08T08:42:53;98.53;;;55.30;;
41572;SDS011;27286;47.870;19.006;2022-12-08T08:45:18;91.10;;;51.13;;
41572;SDS011;27286;47.870;19.006;2022-12-08T08:47:43;84.95;;;52.38;;
41572;SDS011;27286;47.870;19.006;2022-12-08T08:50:09;94.13;;;51.83;;
41572;SDS011;27286;47.870;19.006;2022-12-08T08:52:34;78.55;;;49.03;;
41572;SDS011;27286;47.870;19.006;2022-12-08T08:55:00;62.05;;;40.50;;
41572;SDS011;27286;47.870;19.006;2022-12-08T08:57:25;52.45;;;35.38;;
41572;SDS011;27286;47.870;19.006;2022-12-08T08:59:51;41.83;;;27.00;;
41572;SDS011;27286;47.870;19.006;2022-12-08T09:02:17;25.20;;;17.45;;
41572;SDS011;27286;47.870;19.006;2022-12-08T09:04:43;23.30;;;16.55;;
41572;SDS011;27286;47.870;19.006;2022-12-08T09:07:09;21.05;;;15.30;;
41572;SDS011;27286;47.870;19.006;2022-12-08T09:09:35;24.20;;;16.52;;
41572;SDS011;27286;47.870;19.006;2022-12-08T09:12:00;22.40;;;15.90;;
41572;SDS011;27286;47.870;19.006;2022-12-08T09:14:26;22.48;;;16.15;;
41572;SDS011;27286;47.870;19.006;2022-12-08T09:16:51;19.17;;;14.88;;
41572;SDS011;27286;47.870;19.006;2022-12-08T09:19:17;21.05;;;14.85;;
41572;SDS011;27286;47.870;19.006;2022-12-08T09:21:42;20.40;;;15.48;;
41572;SDS011;27286;47.870;19.006;2022-12-08T09:24:08;23.42;;;16.75;;
41572;SDS011;27286;47.870;19.006;2022-12-08T09:26:39;21.95;;;16.33;;
41572;SDS011;27286;47.870;19.006;2022-12-08T09:29:06;21.65;;;15.73;;
41572;SDS011;27286;47.870;19.006;2022-12-08T09:31:32;23.27;;;16.25;;
41572;SDS011;27286;47.870;19.006;2022-12-08T09:33:57;21.08;;;14.93;;
41572;SDS011;27286;47.870;19.006;2022-12-08T09:36:23;21.67;;;16.08;;
41572;SDS011;27286;47.870;19.006;2022-12-08T09:38:49;22.13;;;15.15;;
41572;SDS011;27286;47.870;19.006;2022-12-08T09:46:50;31.08;;;19.92;;
41572;SDS011;27286;47.870;19.006;2022-12-08T09:49:17;26.75;;;18.98;;
41572;SDS011;27286;47.870;19.006;2022-12-08T09:51:47;31.00;;;22.33;;
41572;SDS011;27286;47.870;19.006;2022-12-08T09:56:53;28.75;;;21.55;;
41572;SDS011;27286;47.870;19.006;2022-12-08T09:59:32;32.88;;;22.40;;
41572;SDS011;27286;47.870;19.006;2022-12-08T10:02:02;31.27;;;23.02;;
41572;SDS011;27286;47.870;19.006;2022-12-08T10:04:44;34.15;;;22.35;;
41572;SDS011;27286;47.870;19.006;2022-12-08T10:07:15;32.08;;;21.30;;
41572;SDS011;27286;47.870;19.006;2022-12-08T10:09:48;27.23;;;17.95;;
41572;SDS011;27286;47.870;19.006;2022-12-08T10:17:29;24.92;;;16.33;;
41572;SDS011;27286;47.870;19.006;2022-12-08T10:20:01;24.20;;;16.98;;
41572;SDS011;27286;47.870;19.006;2022-12-08T10:22:37;27.20;;;17.75;;
41572;SDS011;27286;47.870;19.006;2022-12-08T10:25:14;21.20;;;15.75;;
41572;SDS011;27286;47.870;19.006;2022-12-08T10:27:43;26.48;;;17.80;;
41572;SDS011;27286;47.870;19.006;2022-12-08T10:30:13;36.85;;;23.92;;
41572;SDS011;27286;47.870;19.006;2022-12-08T10:32:41;32.08;;;22.65;;
41572;SDS011;27286;47.870;19.006;2022-12-08T10:35:10;39.78;;;27.40;;
41572;SDS011;27286;47.870;19.006;2022-12-08T10:37:37;37.00;;;27.50;;
41572;SDS011;27286;47.870;19.006;2022-12-08T10:42:51;35.67;;;27.23;;
41572;SDS011;27286;47.870;19.006;2022-12-08T10:50:27;26.73;;;18.30;;
41572;SDS011;27286;47.870;19.006;2022-12-08T10:52:53;25.38;;;18.85;;
41572;SDS011;27286;47.870;19.006;2022-12-08T10:55:20;23.52;;;17.58;;
41572;SDS011;27286;47.870;19.006;2022-12-08T10:57:47;24.02;;;17.90;;
41572;SDS011;27286;47.870;19.006;2022-12-08T11:00:16;31.15;;;21.05;;
41572;SDS011;27286;47.870;19.006;2022-12-08T11:02:57;31.27;;;22.02;;
41572;SDS011;27286;47.870;19.006;2022-12-08T11:05:33;35.97;;;21.70;;
41572;SDS011;27286;47.870;19.006;2022-12-08T11:08:00;34.55;;;24.33;;
41572;SDS011;27286;47.870;19.006;2022-12-08T11:10:35;29.88;;;20.95;;
41572;SDS011;27286;47.870;19.006;2022-12-08T11:13:03;45.40;;;28.45;;
41572;SDS011;27286;47.870;19.006;2022-12-08T11:15:37;38.50;;;25.38;;
41572;SDS011;27286;47.870;19.006;2022-12-08T11:18:07;32.58;;;21.38;;
41572;SDS011;27286;47.870;19.006;2022-12-08T11:20:58;33.25;;;23.63;;
41572;SDS011;27286;47.870;19.006;2022-12-08T11:23:26;32.53;;;21.48;;
41572;SDS011;27286;47.870;19.006;2022-12-08T11:25:53;41.53;;;26.10;;
41572;SDS011;27286;47.870;19.006;2022-12-08T11:28:22;37.13;;;26.40;;
41572;SDS011;27286;47.870;19.006;2022-12-08T11:30:52;34.58;;;24.58;;
41572;SDS011;27286;47.870;19.006;2022-12-08T11:33:27;34.63;;;26.35;;
41572;SDS011;27286;47.870;19.006;2022-12-08T11:35:55;35.33;;;24.33;;
41572;SDS011;27286;47.870;19.006;2022-12-08T11:38:25;32.30;;;22.20;;
41572;SDS011;27286;47.870;19.006;2022-12-08T11:46:24;22.10;;;16.65;;
41572;SDS011;27286;47.870;19.006;2022-12-08T11:48:57;24.50;;;18.40;;
41572;SDS011;27286;47.870;19.006;2022-12-08T11:56:39;19.65;;;14.98;;
41572;SDS011;27286;47.870;19.006;2022-12-08T11:59:21;19.55;;;13.63;;
41572;SDS011;27286;47.870;19.006;2022-12-08T12:01:48;18.50;;;13.85;;
41572;SDS011;27286;47.870;19.006;2022-12-08T12:15:57;20.83;;;15.00;;
41572;SDS011;27286;47.870;19.006;2022-12-08T12:21:27;20.00;;;14.32;;
41572;SDS011;27286;47.870;19.006;2022-12-08T12:27:15;19.70;;;13.98;;
41572;SDS011;27286;47.870;19.006;2022-12-08T12:29:48;19.98;;;14.35;;
41572;SDS011;27286;47.870;19.006;2022-12-08T12:32:17;25.05;;;14.88;;
41572;SDS011;27286;47.870;19.006;2022-12-08T12:34:56;21.10;;;15.02;;
41572;SDS011;27286;47.870;19.006;2022-12-08T12:37:37;24.00;;;16.55;;
41572;SDS011;27286;47.870;19.006;2022-12-08T12:47:44;29.80;;;22.77;;
41572;SDS011;27286;47.870;19.006;2022-12-08T12:53:02;35.70;;;23.07;;
41572;SDS011;27286;47.870;19.006;2022-12-08T12:55:49;30.95;;;21.38;;
41572;SDS011;27286;47.870;19.006;2022-12-08T12:58:20;24.10;;;17.33;;
41572;SDS011;27286;47.870;19.006;2022-12-08T13:00:45;26.52;;;19.48;;
41572;SDS011;27286;47.870;19.006;2022-12-08T13:03:14;61.20;;;36.47;;
41572;SDS011;27286;47.870;19.006;2022-12-08T13:05:48;41.63;;;26.08;;
41572;SDS011;27286;47.870;19.006;2022-12-08T13:08:22;32.45;;;20.85;;
41572;SDS011;27286;47.870;19.006;2022-12-08T13:11:00;33.85;;;22.35;;
41572;SDS011;27286;47.870;19.006;2022-12-08T13:13:28;34.72;;;23.10;;
41572;SDS011;27286;47.870;19.006;2022-12-08T13:15:55;41.90;;;29.52;;
41572;SDS011;27286;47.870;19.006;2022-12-08T13:21:14;50.10;;;33.13;;
41572;SDS011;27286;47.870;19.006;2022-12-08T13:26:35;37.72;;;26.15;;
41572;SDS011;27286;47.870;19.006;2022-12-08T13:29:23;26.08;;;18.25;;
41572;SDS011;27286;47.870;19.006;2022-12-08T13:31:53;39.40;;;22.05;;
41572;SDS011;27286;47.870;19.006;2022-12-08T13:34:40;31.98;;;20.80;;
41572;SDS011;27286;47.870;19.006;2022-12-08T13:44:56;25.70;;;17.50;;
41572;SDS011;27286;47.870;19.006;2022-12-08T13:47:36;23.02;;;17.48;;
41572;SDS011;27286;47.870;19.006;2022-12-08T13:50:24;21.95;;;16.48;;
41572;SDS011;27286;47.870;19.006;2022-12-08T13:52:54;23.15;;;16.42;;
41572;SDS011;27286;47.870;19.006;2022-12-08T13:55:28;27.70;;;17.23;;
41572;SDS011;27286;47.870;19.006;2022-12-08T13:57:59;22.55;;;15.93;;
41572;SDS011;27286;47.870;19.006;2022-12-08T14:00:25;25.00;;;17.83;;
41572;SDS011;27286;47.870;19.006;2022-12-08T14:02:57;39.47;;;23.05;;
41572;SDS011;27286;47.870;19.006;2022-12-08T14:05:25;92.60;;;48.90;;
41572;SDS011;27286;47.870;19.006;2022-12-08T14:07:53;76.03;;;42.35;;
41572;SDS011;27286;47.870;19.006;2022-12-08T14:10:27;57.75;;;31.33;;
41572;SDS011;27286;47.870;19.006;2022-12-08T14:12:58;41.40;;;23.55;;
41572;SDS011;27286;47.870;19.006;2022-12-08T14:15:33;41.60;;;24.13;;
41572;SDS011;27286;47.870;19.006;2022-12-08T14:17:58;34.22;;;22.17;;
41572;SDS011;27286;47.870;19.006;2022-12-08T14:20:25;25.10;;;17.27;;
41572;SDS011;27286;47.870;19.006;2022-12-08T14:22:55;27.13;;;16.55;;
41572;SDS011;27286;47.870;19.006;2022-12-08T14:25:21;34.85;;;17.15;;
41572;SDS011;27286;47.870;19.006;2022-12-08T14:27:48;24.73;;;17.33;;
41572;SDS011;27286;47.870;19.006;2022-12-08T14:38:00;34.65;;;23.25;;
41572;SDS011;27286;47.870;19.006;2022-12-08T14:41:03;41.80;;;24.92;;
41572;SDS011;27286;47.870;19.006;2022-12-08T14:43:33;21.77;;;15.63;;
41572;SDS011;27286;47.870;19.006;2022-12-08T14:46:03;19.73;;;13.98;;
41572;SDS011;27286;47.870;19.006;2022-12-08T14:48:42;16.05;;;11.68;;
41572;SDS011;27286;47.870;19.006;2022-12-08T14:59:24;10.93;;;7.45;;
41572;SDS011;27286;47.870;19.006;2022-12-08T15:04:41;8.80;;;6.80;;
41572;SDS011;27286;47.870;19.006;2022-12-08T15:09:44;13.02;;;7.05;;
41572;SDS011;27286;47.870;19.006;2022-12-08T15:17:34;11.85;;;7.80;;
41572;SDS011;27286;47.870;19.006;2022-12-08T15:20:00;11.77;;;8.07;;
41572;SDS011;27286;47.870;19.006;2022-12-08T15:22:26;12.63;;;7.97;;
41572;SDS011;27286;47.870;19.006;2022-12-08T15:24:54;23.10;;;12.45;;
41572;SDS011;27286;47.870;19.006;2022-12-08T15:27:20;12.25;;;8.07;;
41572;SDS011;27286;47.870;19.006;2022-12-08T15:29:48;12.60;;;9.30;;
41572;SDS011;27286;47.870;19.006;2022-12-08T15:32:18;13.52;;;9.13;;
41572;SDS011;27286;47.870;19.006;2022-12-08T15:34:45;12.60;;;8.23;;
41572;SDS011;27286;47.870;19.006;2022-12-08T15:37:18;14.02;;;9.07;;
41572;SDS011;27286;47.870;19.006;2022-12-08T15:39:45;13.23;;;9.05;;
41572;SDS011;27286;47.870;19.006;2022-12-08T15:42:11;24.10;;;15.80;;
41572;SDS011;27286;47.870;19.006;2022-12-08T15:44:37;13.82;;;9.50;;
41572;SDS011;27286;47.870;19.006;2022-12-08T15:47:03;14.10;;;8.73;;
41572;SDS011;27286;47.870;19.006;2022-12-08T15:49:29;12.75;;;9.18;;
41572;SDS011;27286;47.870;19.006;2022-12-08T15:51:55;12.18;;;7.93;;
41572;SDS011;27286;47.870;19.006;2022-12-08T15:54:20;13.25;;;8.50;;
41572;SDS011;27286;47.870;19.006;2022-12-08T15:56:47;15.60;;;9.75;;
41572;SDS011;27286;47.870;19.006;2022-12-08T15:59:22;15.50;;;9.27;;
41572;SDS011;27286;47.870;19.006;2022-12-08T16:01:49;12.13;;;8.85;;
41572;SDS011;27286;47.870;19.006;2022-12-08T16:04:18;12.90;;;8.45;;
41572;SDS011;27286;47.870;19.006;2022-12-08T16:06:46;15.02;;;9.48;;
41572;SDS011;27286;47.870;19.006;2022-12-08T16:09:14;12.20;;;8.35;;
41572;SDS011;27286;47.870;19.006;2022-12-08T16:11:41;13.38;;;9.27;;
41572;SDS011;27286;47.870;19.006;2022-12-08T16:14:25;14.57;;;9.25;;
41572;SDS011;27286;47.870;19.006;2022-12-08T16:16:51;10.95;;;8.38;;
41572;SDS011;27286;47.870;19.006;2022-12-08T16:19:16;13.82;;;9.23;;
41572;SDS011;27286;47.870;19.006;2022-12-08T16:21:41;13.90;;;9.45;;
41572;SDS011;27286;47.870;19.006;2022-12-08T16:24:07;15.52;;;10.13;;
41572;SDS011;27286;47.870;19.006;2022-12-08T16:26:33;13.60;;;10.23;;
41572;SDS011;27286;47.870;19.006;2022-12-08T16:28:58;16.55;;;9.85;;
41572;SDS011;27286;47.870;19.006;2022-12-08T16:31:24;13.82;;;9.95;;
41572;SDS011;27286;47.870;19.006;2022-12-08T16:33:49;15.88;;;10.25;;
41572;SDS011;27286;47.870;19.006;2022-12-08T16:36:14;14.02;;;9.65;;
41572;SDS011;27286;47.870;19.006;2022-12-08T16:38:40;14.25;;;10.23;;
41572;SDS011;27286;47.870;19.006;2022-12-08T16:41:05;15.65;;;9.75;;
41572;SDS011;27286;47.870;19.006;2022-12-08T16:44:02;15.32;;;10.23;;